createdAt,value
2022-07-29T00:02:16.027Z,24.27
2022-07-29T00:04:42.716Z,24.26
2022-07-29T00:07:09.446Z,24.26
2022-07-29T00:09:50.355Z,24.25
2022-07-29T00:12:25.282Z,24.21
2022-07-29T00:14:53.488Z,24.17
2022-07-29T00:17:20.061Z,24.14
2022-07-29T00:19:46.622Z,24.19
2022-07-29T00:22:13.170Z,24.23
2022-07-29T00:24:39.711Z,24.18
2022-07-29T00:27:07.143Z,24.21
2022-07-29T00:29:34.854Z,24.23
2022-07-29T00:32:02.647Z,24.21
2022-07-29T00:34:47.655Z,24.17
2022-07-29T00:37:14.165Z,24.18
2022-07-29T00:39:40.733Z,24.17
2022-07-29T00:42:07.440Z,24.14
2022-07-29T00:44:38.977Z,24.32
2022-07-29T00:47:05.860Z,24.13
2022-07-29T00:49:33.289Z,24.09
2022-07-29T00:52:03.185Z,24.02
2022-07-29T00:54:30.144Z,23.92
2022-07-29T00:56:59.334Z,23.85
2022-07-29T00:59:34.476Z,23.79
2022-07-29T01:02:03.379Z,23.76
2022-07-29T01:04:31.886Z,23.76
2022-07-29T01:06:59.590Z,23.74
2022-07-29T01:09:42.775Z,23.70
2022-07-29T01:12:17.597Z,23.68
2022-07-29T01:14:45.558Z,23.69
2022-07-29T01:17:18.784Z,23.70
2022-07-29T01:20:00.520Z,23.63
2022-07-29T01:22:43.508Z,23.59
2022-07-29T01:25:25.930Z,23.63
2022-07-29T01:28:00.862Z,23.43
2022-07-29T01:30:33.400Z,23.21
2022-07-29T01:33:04.087Z,23.11
2022-07-29T01:35:39.219Z,23.01
2022-07-29T01:38:20.573Z,22.99
2022-07-29T01:41:17.321Z,22.92
2022-07-29T01:43:59.157Z,22.83
2022-07-29T01:46:31.641Z,22.83
2022-07-29T01:49:07.004Z,22.81
2022-07-29T01:51:53.816Z,22.79
2022-07-29T01:54:38.271Z,22.76
2022-07-29T01:57:07.857Z,22.64
2022-07-29T01:59:37.177Z,22.64
2022-07-29T02:02:04.064Z,22.58
2022-07-29T02:04:33.141Z,22.56
2022-07-29T02:07:03.197Z,22.60
2022-07-29T02:09:31.147Z,22.64
2022-07-29T02:12:00.292Z,22.66
2022-07-29T02:14:32.181Z,22.67
2022-07-29T02:17:01.441Z,22.68
2022-07-29T02:19:30.011Z,22.62
2022-07-29T02:21:58.662Z,22.60
2022-07-29T02:24:26.894Z,22.60
2022-07-29T02:26:55.926Z,22.53
2022-07-29T02:29:24.526Z,22.48
2022-07-29T02:31:52.521Z,22.36
2022-07-29T02:34:21.683Z,22.31
2022-07-29T02:36:50.397Z,22.26
2022-07-29T02:39:18.625Z,22.23
2022-07-29T02:41:48.709Z,22.15
2022-07-29T02:44:18.610Z,22.12
2022-07-29T02:47:20.023Z,22.08
2022-07-29T02:50:09.331Z,22.00
2022-07-29T02:52:37.685Z,21.96
2022-07-29T02:55:19.564Z,21.91
2022-07-29T02:57:55.861Z,21.85
2022-07-29T03:00:28.205Z,21.86
2022-07-29T03:02:57.275Z,21.86
2022-07-29T03:05:24.660Z,21.84
2022-07-29T03:07:58.136Z,21.81
2022-07-29T03:10:27.215Z,21.80
2022-07-29T03:12:55.734Z,21.76
2022-07-29T03:15:23.364Z,21.74
2022-07-29T03:17:53.778Z,21.66
2022-07-29T03:20:20.718Z,21.62
2022-07-29T03:22:50.051Z,21.54
2022-07-29T03:25:18.716Z,21.50
2022-07-29T03:27:46.321Z,21.43
2022-07-29T03:30:22.007Z,21.40
2022-07-29T03:32:52.089Z,21.34
2022-07-29T03:35:20.383Z,21.30
2022-07-29T03:37:47.253Z,21.31
2022-07-29T03:40:19.144Z,21.29
2022-07-29T03:42:47.727Z,21.30
2022-07-29T03:45:19.066Z,21.23
2022-07-29T03:47:52.876Z,21.21
2022-07-29T03:50:22.755Z,21.17
2022-07-29T03:52:49.955Z,21.16
2022-07-29T03:55:17.289Z,21.08
2022-07-29T03:57:45.987Z,21.03
2022-07-29T04:00:13.234Z,21.01
2022-07-29T04:02:40.909Z,21.01
2022-07-29T04:05:13.084Z,21.02
2022-07-29T04:07:39.711Z,21.01
2022-07-29T04:10:06.911Z,20.97
2022-07-29T04:12:33.497Z,21.02
2022-07-29T04:15:00.045Z,20.96
2022-07-29T04:17:26.572Z,20.95
2022-07-29T04:19:53.120Z,20.88
2022-07-29T04:22:19.632Z,20.90
2022-07-29T04:24:46.219Z,20.96
2022-07-29T04:27:12.909Z,20.98
2022-07-29T04:29:56.603Z,21.02
2022-07-29T04:32:24.773Z,21.09
2022-07-29T04:34:51.490Z,21.12
2022-07-29T04:37:18.181Z,21.26
2022-07-29T04:39:44.731Z,21.45
2022-07-29T04:42:11.316Z,21.62
2022-07-29T04:44:39.453Z,21.78
2022-07-29T04:47:09.639Z,21.93
2022-07-29T04:49:38.986Z,22.07
2022-07-29T04:52:06.398Z,22.06
2022-07-29T04:54:33.056Z,22.12
2022-07-29T04:56:59.580Z,22.22
2022-07-29T04:59:27.581Z,22.30
2022-07-29T05:01:54.315Z,22.46
2022-07-29T05:04:21.120Z,22.52
2022-07-29T05:06:48.493Z,22.67
2022-07-29T05:09:15.145Z,22.85
2022-07-29T05:11:41.688Z,23.00
2022-07-29T05:14:08.218Z,23.00
2022-07-29T05:16:34.793Z,23.26
2022-07-29T05:19:01.684Z,23.43
2022-07-29T05:23:54.987Z,23.68
2022-07-29T05:26:21.562Z,24.01
2022-07-29T05:28:48.169Z,24.08
2022-07-29T05:31:15.581Z,24.26
2022-07-29T05:33:42.543Z,24.49
2022-07-29T05:36:09.622Z,24.45
2022-07-29T05:38:36.950Z,24.68
2022-07-29T05:41:04.461Z,25.01
2022-07-29T05:43:31.188Z,25.24
2022-07-29T05:45:58.088Z,25.39
2022-07-29T05:48:25.582Z,25.65
2022-07-29T05:50:52.316Z,25.73
2022-07-29T05:53:20.587Z,25.76
2022-07-29T05:55:49.744Z,26.03
2022-07-29T05:58:16.369Z,26.40
2022-07-29T06:00:42.963Z,26.50
2022-07-29T06:03:09.593Z,26.95
2022-07-29T06:05:36.288Z,27.27
2022-07-29T06:08:03.206Z,27.51
2022-07-29T06:10:29.877Z,27.75
2022-07-29T06:12:56.497Z,27.69
2022-07-29T06:15:23.159Z,27.28
2022-07-29T06:17:59.750Z,27.27
2022-07-29T06:20:31.983Z,27.39
2022-07-29T06:22:59.039Z,27.01
2022-07-29T06:25:25.706Z,27.15
2022-07-29T06:27:53.254Z,27.42
2022-07-29T06:30:19.832Z,27.46
2022-07-29T06:32:46.525Z,27.32
2022-07-29T06:35:37.862Z,27.45
2022-07-29T06:38:00.018Z,28.09
2022-07-29T06:40:46.183Z,28.59
2022-07-29T06:43:12.809Z,29.09
2022-07-29T06:45:42.045Z,29.38
2022-07-29T06:48:09.576Z,29.51
2022-07-29T06:50:36.435Z,29.59
2022-07-29T06:53:03.168Z,29.99
2022-07-29T06:55:29.747Z,30.07
2022-07-29T06:57:56.304Z,29.83
2022-07-29T07:00:23.018Z,30.03
2022-07-29T07:02:49.641Z,29.87
2022-07-29T07:05:16.269Z,30.14
2022-07-29T07:07:42.869Z,30.44
2022-07-29T07:10:09.686Z,30.94
2022-07-29T07:12:36.297Z,31.09
2022-07-29T07:15:03.288Z,31.52
2022-07-29T07:17:29.863Z,31.83
2022-07-29T07:19:56.420Z,31.70
2022-07-29T07:22:23.019Z,32.40
2022-07-29T07:24:49.581Z,32.16
2022-07-29T07:27:16.127Z,32.14
2022-07-29T07:29:44.472Z,31.88
2022-07-29T07:32:11.357Z,31.79
2022-07-29T07:34:38.958Z,31.94
2022-07-29T07:37:06.277Z,32.26
2022-07-29T07:39:32.937Z,32.22
2022-07-29T07:41:59.813Z,32.50
2022-07-29T07:44:26.473Z,32.82
2022-07-29T07:46:53.339Z,33.11
2022-07-29T07:49:21.591Z,33.40
2022-07-29T07:51:50.821Z,33.59
2022-07-29T07:54:20.517Z,34.07
2022-07-29T07:56:49.866Z,33.87
2022-07-29T07:59:19.598Z,33.85
2022-07-29T08:01:47.981Z,34.08
2022-07-29T08:04:27.295Z,34.15
2022-07-29T08:06:57.786Z,33.84
2022-07-29T08:09:29.875Z,33.67
2022-07-29T08:11:59.173Z,33.89
2022-07-29T08:14:26.070Z,33.61
2022-07-29T08:16:52.751Z,33.21
2022-07-29T08:19:19.592Z,32.87
2022-07-29T08:21:46.470Z,32.72
2022-07-29T08:24:31.634Z,33.19
2022-07-29T08:26:58.201Z,34.21
2022-07-29T08:29:24.962Z,35.11
2022-07-29T08:31:51.892Z,34.92
2022-07-29T08:34:18.821Z,35.40
2022-07-29T08:36:52.642Z,35.49
2022-07-29T08:39:19.358Z,34.69
2022-07-29T08:41:56.695Z,35.42
2022-07-29T08:44:29.602Z,35.79
2022-07-29T08:46:57.704Z,35.85
2022-07-29T08:49:24.435Z,36.33
2022-07-29T08:51:52.431Z,36.37
2022-07-29T08:54:20.759Z,37.26
2022-07-29T08:56:50.889Z,37.85
2022-07-29T08:59:21.857Z,38.25
2022-07-29T09:01:53.115Z,37.67
2022-07-29T09:04:21.984Z,37.37
2022-07-29T09:06:52.190Z,37.36
2022-07-29T09:09:18.909Z,37.99
2022-07-29T09:11:45.603Z,39.00
2022-07-29T09:14:14.377Z,39.76
2022-07-29T09:16:57.449Z,41.32
2022-07-29T09:19:27.077Z,41.47
2022-07-29T09:22:03.026Z,39.20
2022-07-29T09:24:45.359Z,40.13
2022-07-29T09:27:23.013Z,40.55
2022-07-29T09:30:11.556Z,41.49
2022-07-29T09:32:59.909Z,42.03
2022-07-29T09:35:27.248Z,41.38
2022-07-29T09:37:53.888Z,42.57
2022-07-29T09:40:26.015Z,44.00
2022-07-29T09:42:54.145Z,44.82
2022-07-29T09:45:48.336Z,45.52
2022-07-29T09:48:26.013Z,46.11
2022-07-29T09:50:53.479Z,46.12
2022-07-29T09:53:34.490Z,44.91
2022-07-29T09:56:01.789Z,44.37
2022-07-29T09:58:28.796Z,45.86
2022-07-29T10:00:56.618Z,46.61
2022-07-29T10:03:24.019Z,45.71
2022-07-29T10:06:10.865Z,47.48
2022-07-29T10:08:38.661Z,46.13
2022-07-29T10:11:11.596Z,47.08
2022-07-29T10:13:39.075Z,46.05
2022-07-29T10:16:06.793Z,46.17
2022-07-29T10:18:34.105Z,47.20
2022-07-29T10:21:02.090Z,48.43
2022-07-29T10:23:30.687Z,47.04
2022-07-29T10:26:14.009Z,48.31
2022-07-29T10:28:40.612Z,48.69
2022-07-29T10:31:14.727Z,48.87
2022-07-29T10:34:18.449Z,48.68
2022-07-29T10:37:01.051Z,45.89
2022-07-29T10:39:49.736Z,44.61
2022-07-29T10:42:33.915Z,42.28
2022-07-29T10:45:02.759Z,41.62
2022-07-29T10:47:31.760Z,41.99
2022-07-29T10:50:03.640Z,42.13
2022-07-29T10:52:53.510Z,42.84
2022-07-29T10:55:45.479Z,42.71
2022-07-29T10:58:19.008Z,43.19
2022-07-29T11:00:51.169Z,42.17
2022-07-29T11:03:52.207Z,41.16
2022-07-29T11:06:26.710Z,40.56
2022-07-29T11:09:25.786Z,40.46
2022-07-29T11:12:02.640Z,41.12
2022-07-29T11:14:59.934Z,40.16
2022-07-29T11:17:26.946Z,39.38
2022-07-29T11:20:32.073Z,40.08
2022-07-29T11:22:59.425Z,39.85
2022-07-29T11:25:42.581Z,40.27
2022-07-29T11:28:23.178Z,39.67
2022-07-29T11:30:54.504Z,40.14
2022-07-29T11:33:54.125Z,40.69
2022-07-29T11:36:16.883Z,40.86
2022-07-29T11:38:43.639Z,41.97
2022-07-29T11:41:21.383Z,40.99
2022-07-29T11:43:52.282Z,40.54
2022-07-29T11:46:47.740Z,40.43
2022-07-29T11:49:21.859Z,40.63
2022-07-29T11:51:55.996Z,40.81
2022-07-29T11:54:50.896Z,40.30
2022-07-29T11:57:22.696Z,39.11
2022-07-29T11:59:49.633Z,38.44
2022-07-29T12:02:37.304Z,38.58
2022-07-29T12:05:10.418Z,38.59
2022-07-29T12:07:39.314Z,39.05
2022-07-29T12:10:11.481Z,40.11
2022-07-29T12:12:52.572Z,40.31
2022-07-29T12:15:21.522Z,40.77
2022-07-29T12:17:49.433Z,41.21
2022-07-29T12:20:28.369Z,40.76
2022-07-29T12:22:56.883Z,40.07
2022-07-29T12:25:33.792Z,39.65
2022-07-29T12:28:02.715Z,38.86
2022-07-29T12:30:55.758Z,38.12
2022-07-29T12:33:25.250Z,37.75
2022-07-29T12:36:12.797Z,38.23
2022-07-29T12:38:44.027Z,38.39
2022-07-29T12:41:11.483Z,38.14
2022-07-29T12:43:38.099Z,37.88
2022-07-29T12:46:15.683Z,37.53
2022-07-29T12:48:44.620Z,37.32
2022-07-29T12:51:13.308Z,37.08
2022-07-29T12:53:40.145Z,37.27
2022-07-29T12:56:41.384Z,37.89
2022-07-29T12:59:12.786Z,38.50
2022-07-29T13:01:39.447Z,37.87
2022-07-29T13:04:06.275Z,37.96
2022-07-29T13:06:51.025Z,37.77
2022-07-29T13:09:20.027Z,37.96
2022-07-29T13:11:49.113Z,38.17
2022-07-29T13:14:38.821Z,38.12
2022-07-29T13:17:09.878Z,37.85
2022-07-29T13:19:45.540Z,37.49
2022-07-29T13:22:14.803Z,37.33
2022-07-29T13:25:02.932Z,37.06
2022-07-29T13:27:33.060Z,36.42
2022-07-29T13:30:01.364Z,36.52
2022-07-29T13:32:29.628Z,36.60
2022-07-29T13:34:57.931Z,36.31
2022-07-29T13:37:25.208Z,36.36
2022-07-29T13:39:53.380Z,36.39
2022-07-29T13:42:20.605Z,36.45
2022-07-29T13:44:47.251Z,36.52
2022-07-29T13:47:13.857Z,36.25
2022-07-29T13:49:40.485Z,36.57
2022-07-29T13:52:08.309Z,36.44
2022-07-29T13:54:42.084Z,35.80
2022-07-29T13:57:11.484Z,35.80
2022-07-29T13:59:38.297Z,36.04
2022-07-29T14:02:05.918Z,36.14
2022-07-29T14:04:33.378Z,36.11
2022-07-29T14:07:00.060Z,35.94
2022-07-29T14:09:41.084Z,35.81
2022-07-29T14:12:09.337Z,35.87
2022-07-29T14:14:37.315Z,35.59
2022-07-29T14:17:04.334Z,35.58
2022-07-29T14:19:32.918Z,35.77
2022-07-29T14:21:59.908Z,35.34
2022-07-29T14:24:26.823Z,35.39
2022-07-29T14:26:53.448Z,35.70
2022-07-29T14:29:20.089Z,35.80
2022-07-29T14:31:46.731Z,35.78
2022-07-29T14:34:13.413Z,35.58
2022-07-29T14:36:40.000Z,35.45
2022-07-29T14:39:06.572Z,35.48
2022-07-29T14:41:33.777Z,35.46
2022-07-29T14:44:02.894Z,35.10
2022-07-29T14:46:29.523Z,35.33
2022-07-29T14:48:56.224Z,34.78
2022-07-29T14:51:22.842Z,34.78
2022-07-29T14:53:49.428Z,34.43
2022-07-29T14:56:36.165Z,34.67
2022-07-29T14:59:02.732Z,34.48
2022-07-29T15:01:30.094Z,34.03
2022-07-29T15:03:59.706Z,34.10
2022-07-29T15:06:27.499Z,34.68
2022-07-29T15:08:54.820Z,34.71
2022-07-29T15:11:21.382Z,34.50
2022-07-29T15:13:47.937Z,34.73
2022-07-29T15:16:14.549Z,34.80
2022-07-29T15:18:41.214Z,34.99
2022-07-29T15:21:08.359Z,34.84
2022-07-29T15:23:38.486Z,34.95
2022-07-29T15:26:05.273Z,34.83
2022-07-29T15:28:31.974Z,34.71
2022-07-29T15:30:59.306Z,34.52
2022-07-29T15:33:26.541Z,34.33
2022-07-29T15:35:53.140Z,34.30
2022-07-29T15:38:19.739Z,34.21
2022-07-29T15:40:55.096Z,33.98
2022-07-29T15:43:21.632Z,34.10
2022-07-29T15:46:07.422Z,34.00
2022-07-29T15:48:34.258Z,34.03
2022-07-29T15:51:01.042Z,34.23
2022-07-29T15:53:27.743Z,34.38
2022-07-29T15:55:54.340Z,34.32
2022-07-29T15:58:21.096Z,34.67
2022-07-29T16:00:47.829Z,34.92
2022-07-29T16:03:14.807Z,34.89
2022-07-29T16:05:41.646Z,34.43
2022-07-29T16:08:08.531Z,34.32
2022-07-29T16:10:35.057Z,33.84
2022-07-29T16:13:01.722Z,33.86
2022-07-29T16:15:28.257Z,33.78
2022-07-29T16:17:54.835Z,33.80
2022-07-29T16:20:22.361Z,33.74
2022-07-29T16:22:49.236Z,33.68
2022-07-29T16:25:15.842Z,33.77
2022-07-29T16:27:42.523Z,33.98
2022-07-29T16:30:12.311Z,34.09
2022-07-29T16:32:39.740Z,34.33
2022-07-29T16:35:07.538Z,34.60
2022-07-29T16:37:36.436Z,34.67
2022-07-29T16:40:04.793Z,34.51
2022-07-29T16:42:46.011Z,34.10
2022-07-29T16:45:13.478Z,34.11
2022-07-29T16:47:40.510Z,33.93
2022-07-29T16:50:07.768Z,33.75
2022-07-29T16:52:34.428Z,33.51
2022-07-29T16:55:00.951Z,33.11
2022-07-29T16:57:27.508Z,32.88
2022-07-29T16:59:54.058Z,32.54
2022-07-29T17:02:20.684Z,32.42
2022-07-29T17:04:47.367Z,32.20
2022-07-29T17:07:14.196Z,32.12
2022-07-29T17:09:41.112Z,32.02
2022-07-29T17:12:08.019Z,31.84
2022-07-29T17:14:34.645Z,31.71
2022-07-29T17:17:02.491Z,31.72
2022-07-29T17:19:32.781Z,31.61
2022-07-29T17:22:12.987Z,31.74
2022-07-29T17:24:42.615Z,31.56
2022-07-29T17:27:10.239Z,31.62
2022-07-29T17:29:38.606Z,31.64
2022-07-29T17:32:07.423Z,31.68
2022-07-29T17:34:35.730Z,31.61
2022-07-29T17:37:02.329Z,31.81
2022-07-29T17:39:29.032Z,31.89
2022-07-29T17:41:55.731Z,32.05
2022-07-29T17:44:22.268Z,32.12
2022-07-29T17:46:48.972Z,32.01
2022-07-29T17:49:15.618Z,32.06
2022-07-29T17:51:42.213Z,32.02
2022-07-29T17:54:08.765Z,32.03
2022-07-29T17:56:35.423Z,31.94
2022-07-29T17:59:06.393Z,31.83
2022-07-29T18:01:33.725Z,31.68
2022-07-29T18:04:00.586Z,31.65
2022-07-29T18:06:27.162Z,31.63
2022-07-29T18:08:54.319Z,31.58
2022-07-29T18:11:21.685Z,31.42
2022-07-29T18:13:48.268Z,31.30
2022-07-29T18:16:15.040Z,31.27
2022-07-29T18:18:43.339Z,31.18
2022-07-29T18:21:09.980Z,31.07
2022-07-29T18:23:36.585Z,31.05
2022-07-29T18:26:03.376Z,31.05
2022-07-29T18:28:30.040Z,30.81
2022-07-29T18:30:57.840Z,30.69
2022-07-29T18:33:24.461Z,30.67
2022-07-29T18:36:10.821Z,30.63
2022-07-29T18:38:40.061Z,30.56
2022-07-29T18:41:06.876Z,30.45
2022-07-29T18:43:33.434Z,30.34
2022-07-29T18:46:00.005Z,30.33
2022-07-29T18:48:26.860Z,30.34
2022-07-29T18:50:53.496Z,30.11
2022-07-29T18:53:20.129Z,29.89
2022-07-29T18:55:46.700Z,29.86
2022-07-29T18:58:13.289Z,29.77
2022-07-29T19:00:39.818Z,29.65
2022-07-29T19:03:08.255Z,29.67
2022-07-29T19:05:34.955Z,29.62
2022-07-29T19:08:01.595Z,29.47
2022-07-29T19:10:28.303Z,29.42
2022-07-29T19:12:55.244Z,29.30
2022-07-29T19:15:21.797Z,29.24
2022-07-29T19:17:48.864Z,29.23
2022-07-29T19:20:15.906Z,29.18
2022-07-29T19:22:42.655Z,29.15
2022-07-29T19:25:10.012Z,29.12
2022-07-29T19:27:36.802Z,28.97
2022-07-29T19:30:06.389Z,28.92
2022-07-29T19:32:33.113Z,28.90
2022-07-29T19:35:18.231Z,28.81
2022-07-29T19:37:44.807Z,28.79
2022-07-29T19:40:12.517Z,28.66
2022-07-29T19:42:39.450Z,28.61
2022-07-29T19:45:06.539Z,28.53
2022-07-29T19:47:33.121Z,28.50
2022-07-29T19:50:00.628Z,28.42
2022-07-29T19:52:27.595Z,28.32
2022-07-29T19:54:54.355Z,28.29
2022-07-29T19:57:20.896Z,28.16
2022-07-29T19:59:47.482Z,28.06
2022-07-29T20:02:14.202Z,27.93
2022-07-29T20:04:42.698Z,27.86
2022-07-29T20:07:09.417Z,27.80
2022-07-29T20:09:36.289Z,27.75
2022-07-29T20:12:04.663Z,27.71
2022-07-29T20:14:31.194Z,27.60
2022-07-29T20:16:57.747Z,27.57
2022-07-29T20:19:24.428Z,27.53
2022-07-29T20:21:51.421Z,27.44
2022-07-29T20:24:19.333Z,27.40
2022-07-29T20:26:46.759Z,27.34
2022-07-29T20:29:13.617Z,27.32
2022-07-29T20:31:40.518Z,27.33
2022-07-29T20:34:07.114Z,27.34
2022-07-29T20:36:33.648Z,27.29
2022-07-29T20:39:00.323Z,27.25
2022-07-29T20:41:26.965Z,27.19
2022-07-29T20:43:53.491Z,27.14
2022-07-29T20:46:20.083Z,27.09
2022-07-29T20:48:47.256Z,27.08
2022-07-29T20:51:14.424Z,27.03
2022-07-29T20:53:41.109Z,26.97
2022-07-29T20:56:07.948Z,26.92
2022-07-29T20:58:36.231Z,26.86
2022-07-29T21:01:04.033Z,26.81
2022-07-29T21:03:30.690Z,26.76
2022-07-29T21:05:57.287Z,26.72
2022-07-29T21:08:24.023Z,26.68
2022-07-29T21:10:50.794Z,26.58
2022-07-29T21:13:18.589Z,26.53
2022-07-29T21:15:49.154Z,26.48
2022-07-29T21:18:32.896Z,26.45
2022-07-29T21:21:00.933Z,26.36
2022-07-29T21:23:28.025Z,26.31
2022-07-29T21:25:54.824Z,26.17
2022-07-29T21:28:27.660Z,26.15
2022-07-29T21:30:59.404Z,26.14
2022-07-29T21:33:28.103Z,26.03
2022-07-29T21:38:42.019Z,25.83
2022-07-29T21:41:12.190Z,25.82
2022-07-29T21:43:41.737Z,25.74
2022-07-29T21:46:09.340Z,25.69
2022-07-29T21:48:36.015Z,25.65
2022-07-29T21:51:02.721Z,25.60
2022-07-29T21:53:29.384Z,25.56
2022-07-29T21:55:57.419Z,25.50
2022-07-29T21:58:24.673Z,25.42
2022-07-29T22:00:52.194Z,25.38
2022-07-29T22:03:18.963Z,25.32
2022-07-29T22:05:45.669Z,25.26
2022-07-29T22:08:12.919Z,25.23
2022-07-29T22:10:39.524Z,25.15
2022-07-29T22:13:06.554Z,25.14
2022-07-29T22:15:33.256Z,25.14
2022-07-29T22:18:00.428Z,25.10
2022-07-29T22:20:27.042Z,25.11
2022-07-29T22:22:53.995Z,25.08
2022-07-29T22:25:21.170Z,25.04
2022-07-29T22:27:47.865Z,24.93
2022-07-29T22:30:14.752Z,24.86
2022-07-29T22:32:41.939Z,24.83
2022-07-29T22:35:08.633Z,24.82
2022-07-29T22:37:35.555Z,24.71
2022-07-29T22:40:02.348Z,24.67
2022-07-29T22:42:29.029Z,24.62
2022-07-29T22:44:55.853Z,24.58
2022-07-29T22:47:46.242Z,24.52
2022-07-29T22:50:09.125Z,24.49
2022-07-29T22:52:35.731Z,24.44
2022-07-29T22:55:03.859Z,24.41
2022-07-29T22:57:30.465Z,24.36
2022-07-29T22:59:57.019Z,24.32
2022-07-29T23:02:23.733Z,24.26
2022-07-29T23:04:50.288Z,24.21
2022-07-29T23:07:17.537Z,24.25
2022-07-29T23:09:44.094Z,24.23
2022-07-29T23:12:10.673Z,24.24
2022-07-29T23:14:37.670Z,24.24
2022-07-29T23:17:05.177Z,24.21
2022-07-29T23:19:32.016Z,24.19
2022-07-29T23:21:58.802Z,24.13
2022-07-29T23:24:25.494Z,24.13
2022-07-29T23:26:52.098Z,24.09
2022-07-29T23:29:18.730Z,24.05
2022-07-29T23:31:48.134Z,23.99
2022-07-29T23:34:15.056Z,23.87
2022-07-29T23:36:42.288Z,23.80
2022-07-29T23:39:13.225Z,23.77
2022-07-29T23:41:40.001Z,23.71
2022-07-29T23:44:06.823Z,23.74
2022-07-29T23:46:33.763Z,23.74
2022-07-29T23:49:00.520Z,23.75
2022-07-29T23:51:28.973Z,23.73
2022-07-29T23:53:55.818Z,23.71
2022-07-29T23:56:22.611Z,23.67
2022-07-29T23:58:49.199Z,23.66
